Flight Track Log - Related Links

Times and Time Zones

All times are in EDT time to prevent confusion due to time zone crossing. See the SKW6423 flight status page for this flight to view local times or setup timezone preferences in your user account.

Time Position Orientation Groundspeed Altitude Reporting Facility
EDT Latitude Longitude Course Direction KTS MPH feet Rate Location/Type
Thu 10:07:06 PM 41.8753 -91.8578 265° West 214 246 4,200  Level Minneapolis Center
Thu 10:08:19 PM 41.8686 -91.9531 265° West 235 270 7,000 2,744 Climbing Minneapolis Center
Thu 10:09:00 PM 41.8456 -92.0616 265° West  Level FlightAware Approximate
Thu 10:09:15 PM 41.8592 -92.0756 264° West 273 314 10,100  Level Chicago Center
Thu 10:10:00 PM 41.8391 -92.1529 265° West  Level FlightAware Approximate
Thu 10:10:17 PM 41.8503 -92.1822 264° West 290 334 11,900  Level Chicago Center
Thu 10:11:00 PM 41.8288 -92.2976 265° West  Level FlightAware Approximate
Thu 10:11:18 PM 41.8414 -92.2992 264° West 314 361 13,700  Level Chicago Center
Thu 10:12:00 PM 41.8184 -92.4423 265° West  Level FlightAware Approximate
Thu 10:12:20 PM 41.8317 -92.4183 264° West 322 371 15,500  Level Chicago Center
Thu 10:13:21 PM 41.8211 -92.5389 263° West 324 373 17,200 1,688 Climbing Chicago Center
Thu 10:14:28 PM 41.8086 -92.6925 264° West 341 392 19,100 1,395 Climbing Minneapolis Center
Thu 10:15:30 PM 41.7983 -92.8244 264° West 348 400 20,200 927 Climbing Minneapolis Center
Thu 10:16:31 PM 41.7867 -92.9603 263° West 363 418 21,000 934 Climbing Minneapolis Center
Thu 10:17:32 PM 41.7736 -93.1019 263° West 380 437 22,100 1,220 Climbing Minneapolis Center
Thu 10:18:34 PM 41.7608 -93.2417 263° West 382 440 23,500 1,024 Climbing Minneapolis Center
Thu 10:19:35 PM 41.7461 -93.4117 263° West 384 442 24,200 732 Climbing Minneapolis Center
Thu 10:20:37 PM 41.7331 -93.5572 263° West 391 450 25,000 871 Climbing Minneapolis Center
Thu 10:21:39 PM 41.7242 -93.7050 265° West 400 460 26,000 889 Climbing Minneapolis Center
Thu 10:22:52 PM 41.7169 -93.8544 266° West 404 465 27,000 1,022 Climbing Minneapolis Center
Thu 10:23:54 PM 41.7053 -94.0533 266° West 400 460 28,300 871 Climbing Minneapolis Center
Thu 10:24:56 PM 41.6969 -94.2011 266° West 399 459 28,800 484 Climbing Minneapolis Center
Thu 10:25:58 PM 41.6878 -94.3517 265° West 403 464 29,300 488 Climbing Minneapolis Center
Thu 10:26:59 PM 41.6789 -94.5047 266° West 409 471 29,800 537 Climbing Minneapolis Center
Thu 10:28:01 PM 41.6672 -94.6581 264° West 412 474 30,400 732 Climbing Minneapolis Center
Thu 10:29:02 PM 41.6589 -94.8078 266° West 408 470 31,300 780 Climbing Minneapolis Center
Thu 10:30:04 PM 41.6500 -94.9550 265° West 403 464 32,000 341 Climbing Minneapolis Center
Thu 10:31:05 PM 41.6378 -95.1336 265° West 403 464 32,000  Level Minneapolis Center
Thu 10:32:07 PM 41.6272 -95.2878 265° West 416 479 32,000  Level Minneapolis Center
Thu 10:33:09 PM 41.6175 -95.4400 265° West 413 475 32,000  Level Minneapolis Center
Thu 10:34:11 PM 41.6067 -95.5883 264° West 406 467 32,000  Level Minneapolis Center
Thu 10:35:12 PM 41.5947 -95.7550 265° West 408 470 32,000  Level Minneapolis Center
Thu 10:36:14 PM 41.5839 -95.9044 265° West 404 465 32,000  Level Minneapolis Center
Thu 10:37:15 PM 41.5717 -96.0572 264° West 411 473 32,000  Level Minneapolis Center
Thu 10:38:16 PM 41.5639 -96.1775 265° West 407 468 32,000  Level Minneapolis Center
Thu 10:39:18 PM 41.5483 -96.3650 264° West 411 473 32,000  Level Minneapolis Center
Thu 10:40:20 PM 41.5367 -96.5164 264° West 413 475 32,000  Level Minneapolis Center
Thu 10:41:21 PM 41.5239 -96.6683 264° West 414 476 32,000  Level Minneapolis Center
Thu 10:42:23 PM 41.5114 -96.8203 264° West 414 476 32,000  Level Minneapolis Center
Thu 10:43:24 PM 41.4997 -96.9733 264° West 415 478 32,000  Level Minneapolis Center
Thu 10:44:26 PM 41.4844 -97.1569 264° West 416 479 32,000  Level Minneapolis Center
Thu 10:45:27 PM 41.4717 -97.3103 264° West 417 480 32,000  Level Minneapolis Center
Thu 10:46:29 PM 41.4583 -97.4639 263° West 418 481 32,000  Level Minneapolis Center
Thu 10:47:30 PM 41.4444 -97.6181 263° West 420 483 32,000  Level Minneapolis Center
Thu 10:48:31 PM 41.4322 -97.7419 263° West 421 484 32,000  Level Minneapolis Center
Thu 10:49:33 PM 41.4156 -97.9261 263° West 420 483 32,000  Level Minneapolis Center
Thu 10:50:35 PM 41.4011 -98.0794 263° West 419 482 32,000  Level Minneapolis Center
Thu 10:51:36 PM 41.3869 -98.2319 263° West 419 482 32,000  Level Minneapolis Center
Thu 10:52:38 PM 41.3611 -98.4139 259° West 422 486 32,000  Level Minneapolis Center
Thu 10:53:52 PM 41.3239 -98.5644 252° West 422 486 32,000  Level Minneapolis Center
Thu 10:54:53 PM 41.2806 -98.7411 252° West 421 484 32,000  Level Minneapolis Center
Thu 10:55:55 PM 41.2450 -98.8897 252° West 422 486 32,000  Level Minneapolis Center
Thu 10:57:09 PM 41.2078 -99.0367 251° West 422 486 32,000  Level Minneapolis Center
Thu 10:58:11 PM 41.1592 -99.2292 252° West 418 481 32,000  Level Minneapolis Center
Thu 10:59:12 PM 41.1225 -99.3758 252° West 420 483 32,000  Level Minneapolis Center
Thu 11:00:17 PM 41.0856 -99.5222 252° West 419 482 32,000  Level Minneapolis Center
Thu 11:01:19 PM 41.0478 -99.6678 251° West 419 482 32,000  Level Minneapolis Center
Thu 11:02:17 PM 41.0047 -99.8314 251° West 419 482 32,000  Level Denver Center
Thu 11:03:19 PM 40.9750 -99.9728 254° West 417 480 32,000  Level Denver Center
Thu 11:04:20 PM 40.9575 -100.1186 261° West 419 482 32,000  Level Denver Center
Thu 11:05:22 PM 40.9339 -100.2878 260° West 419 482 32,000  Level Denver Center
Thu 11:06:23 PM 40.9139 -100.4328 260° West 419 482 32,000  Level Denver Center
Thu 11:07:24 PM 40.8908 -100.6014 260° West 419 482 32,000  Level Denver Center
Thu 11:08:26 PM 40.8683 -100.7497 259° West 419 482 32,000  Level Denver Center
Thu 11:09:27 PM 40.8469 -100.9072 260° West 423 487 32,000  Level Denver Center
Thu 11:10:29 PM 40.8258 -101.0500 259° West 417 480 32,000  Level Denver Center
Thu 11:11:30 PM 40.8011 -101.2197 259° West 422 486 32,000  Level Denver Center
Thu 11:12:32 PM 40.7800 -101.3631 259° West 418 481 32,000  Level Denver Center
Thu 11:13:34 PM 40.7550 -101.5319 259° West 420 483 32,000  Level Denver Center
Thu 11:14:35 PM 40.7336 -101.6756 259° West 418 481 32,000  Level Denver Center
Thu 11:15:36 PM 40.7111 -101.8214 259° West 422 486 32,000  Level Denver Center
Thu 11:16:38 PM 40.6847 -101.9886 258° West 419 482 32,000  Level Denver Center
Thu 11:17:39 PM 40.6628 -102.1339 259° West 423 487 32,000  Level Denver Center
Thu 11:18:41 PM 40.6378 -102.3006 259° West 417 480 32,000  Level Denver Center
Thu 11:19:43 PM 40.6136 -102.4458 258° West 424 488 32,000  Level Denver Center
Thu 11:20:44 PM 40.5872 -102.6144 258° West 422 486 32,000  Level Denver Center
Thu 11:21:46 PM 40.5636 -102.7592 258° West 423 487 32,000  Level Denver Center
Thu 11:22:47 PM 40.5403 -102.9039 258° West 424 488 32,000 -148 Level Denver Center
Thu 11:23:48 PM 40.5133 -103.0747 258° West 428 493 31,700 -1,366 Descending Denver Center
Thu 11:24:50 PM 40.4892 -103.2186 258° West 425 489 29,200 -2,585 Descending Denver Center
Thu 11:25:51 PM 40.4625 -103.3775 258° West 415 478 26,400 -2,683 Descending Denver Center
Thu 11:26:53 PM 40.4392 -103.5167 258° West 408 470 23,700 -2,806 Descending Denver Center
Thu 11:27:55 PM 40.4131 -103.6761 258° West 400 460 20,600 -2,829 Descending Denver Center
Thu 11:28:56 PM 40.3894 -103.8172 258° West 395 455 17,900 -1,707 Descending Denver Center
Thu 11:29:58 PM 40.3689 -103.9456 258° West 361 415 17,100 -732 Descending Denver Center
Thu 11:30:59 PM 40.3561 -104.0597 262° West 321 369 16,400 -1,073 Descending Denver Center
Thu 11:32:01 PM 40.3556 -104.1792 270° West 305 351 14,900 -1,122 Descending Denver Center
Thu 11:33:02 PM 40.3542 -104.2811 269° West 285 328 14,100 -885 Descending Denver Center
Thu 11:34:03 PM 40.3306 -104.3686 251° West 259 298 13,100 -1,317 Descending Denver Center
Thu 11:35:05 PM 40.3033 -104.4644 250° West 261 300 11,400 -1,403 Descending Denver Center
Thu 11:36:07 PM 40.2667 -104.5408 238° Southwest 251 289 10,200 -976 Descending Denver Center
Thu 11:37:08 PM 40.2228 -104.6072 229° Southwest 243 280 9,400 -541 Descending Denver Center
Thu 11:38:09 PM 40.1592 -104.6511 208° Southwest 240 276 9,100 -146 Descending Denver Center
Thu 11:39:11 PM 40.0981 -104.6839 202° Southwest 242 278 9,100 -537 Level Denver Center
Thu 11:40:12 PM 40.0342 -104.6856 181° South 231 266 8,000 -1,024 Descending Denver Center
Thu 11:41:14 PM 39.9792 -104.6858 180° South 202 232 7,000 -439 Descending Denver Center
Thu 11:42:15 PM 39.9228 -104.6858 180° South 188 216 7,100 195 Climbing Denver Center
Thu 11:43:17 PM 39.8756 -104.7206 209° Southwest 230 265 7,400 927 Climbing Denver Center
Thu 11:44:18 PM 39.9181 -104.7925 308° West 246 283 9,000 787 Climbing Denver Center
Thu 11:45:19 PM 39.9775 -104.7972 357° North 217 250 9,000 49 Level Denver Center
Thu 11:46:21 PM 40.0308 -104.7961 North 196 226 9,100 -49 Climbing Denver Center
Thu 11:47:22 PM 40.0758 -104.7753 20° North 195 224 8,900 -439 Descending Denver Center
Thu 11:48:24 PM 40.0597 -104.7047 107° East 193 222 8,200 -677 Descending Denver Center

Login

Don't have an account? Register now (free) for customized features, flight alerts, and more!